sensor_id;sensor_type;location;lat;lon;timestamp;P1;durP1;ratioP1;P2;durP2;ratioP2
40993;SDS011;26722;43.212;27.932;2023-02-28T00:00:09;6.90;;;5.20;;
40993;SDS011;26722;43.212;27.932;2023-02-28T00:02:36;6.38;;;4.57;;
40993;SDS011;26722;43.212;27.932;2023-02-28T00:05:02;9.15;;;5.13;;
40993;SDS011;26722;43.212;27.932;2023-02-28T00:07:29;6.55;;;5.07;;
40993;SDS011;26722;43.212;27.932;2023-02-28T00:10:02;6.25;;;4.63;;
40993;SDS011;26722;43.212;27.932;2023-02-28T00:12:29;6.07;;;4.90;;
40993;SDS011;26722;43.212;27.932;2023-02-28T00:14:54;7.85;;;4.97;;
40993;SDS011;26722;43.212;27.932;2023-02-28T00:17:20;8.13;;;5.00;;
40993;SDS011;26722;43.212;27.932;2023-02-28T00:19:48;7.13;;;4.80;;
40993;SDS011;26722;43.212;27.932;2023-02-28T00:22:15;9.77;;;5.70;;
40993;SDS011;26722;43.212;27.932;2023-02-28T00:24:42;8.18;;;4.97;;
40993;SDS011;26722;43.212;27.932;2023-02-28T00:27:07;8.25;;;5.32;;
40993;SDS011;26722;43.212;27.932;2023-02-28T00:29:33;7.97;;;5.10;;
40993;SDS011;26722;43.212;27.932;2023-02-28T00:31:58;6.28;;;5.10;;
40993;SDS011;26722;43.212;27.932;2023-02-28T00:34:23;7.50;;;4.93;;
40993;SDS011;26722;43.212;27.932;2023-02-28T00:36:49;6.60;;;4.90;;
40993;SDS011;26722;43.212;27.932;2023-02-28T00:39:14;7.18;;;5.00;;
40993;SDS011;26722;43.212;27.932;2023-02-28T00:41:41;6.50;;;5.38;;
40993;SDS011;26722;43.212;27.932;2023-02-28T00:44:06;7.72;;;5.40;;
40993;SDS011;26722;43.212;27.932;2023-02-28T00:46:31;7.90;;;5.53;;
40993;SDS011;26722;43.212;27.932;2023-02-28T00:48:57;7.03;;;5.10;;
40993;SDS011;26722;43.212;27.932;2023-02-28T00:51:22;8.40;;;5.03;;
40993;SDS011;26722;43.212;27.932;2023-02-28T00:53:48;7.60;;;5.15;;
40993;SDS011;26722;43.212;27.932;2023-02-28T00:56:13;6.55;;;5.10;;
40993;SDS011;26722;43.212;27.932;2023-02-28T00:58:39;7.40;;;5.40;;
40993;SDS011;26722;43.212;27.932;2023-02-28T01:01:04;6.82;;;4.93;;
40993;SDS011;26722;43.212;27.932;2023-02-28T01:03:30;7.03;;;5.15;;
40993;SDS011;26722;43.212;27.932;2023-02-28T01:05:56;7.28;;;5.15;;
40993;SDS011;26722;43.212;27.932;2023-02-28T01:08:21;6.97;;;5.38;;
40993;SDS011;26722;43.212;27.932;2023-02-28T01:10:47;7.25;;;5.32;;
40993;SDS011;26722;43.212;27.932;2023-02-28T01:13:13;7.63;;;5.55;;
40993;SDS011;26722;43.212;27.932;2023-02-28T01:15:46;7.10;;;5.50;;
40993;SDS011;26722;43.212;27.932;2023-02-28T01:18:18;6.78;;;5.28;;
40993;SDS011;26722;43.212;27.932;2023-02-28T01:20:45;7.22;;;5.50;;
40993;SDS011;26722;43.212;27.932;2023-02-28T01:23:11;7.35;;;5.13;;
40993;SDS011;26722;43.212;27.932;2023-02-28T01:25:36;9.77;;;5.57;;
40993;SDS011;26722;43.212;27.932;2023-02-28T01:28:02;8.07;;;5.40;;
40993;SDS011;26722;43.212;27.932;2023-02-28T01:30:27;6.85;;;5.50;;
40993;SDS011;26722;43.212;27.932;2023-02-28T01:32:53;7.07;;;5.25;;
40993;SDS011;26722;43.212;27.932;2023-02-28T01:35:19;7.45;;;5.53;;
40993;SDS011;26722;43.212;27.932;2023-02-28T01:37:45;7.47;;;5.72;;
40993;SDS011;26722;43.212;27.932;2023-02-28T01:40:10;9.35;;;5.85;;
40993;SDS011;26722;43.212;27.932;2023-02-28T01:42:37;8.07;;;5.68;;
40993;SDS011;26722;43.212;27.932;2023-02-28T01:45:04;8.90;;;6.35;;
40993;SDS011;26722;43.212;27.932;2023-02-28T01:47:43;8.77;;;6.15;;
40993;SDS011;26722;43.212;27.932;2023-02-28T01:50:13;9.95;;;6.90;;
40993;SDS011;26722;43.212;27.932;2023-02-28T01:52:41;12.98;;;7.28;;
40993;SDS011;26722;43.212;27.932;2023-02-28T01:55:08;11.43;;;7.93;;
40993;SDS011;26722;43.212;27.932;2023-02-28T01:57:41;10.90;;;7.65;;
40993;SDS011;26722;43.212;27.932;2023-02-28T02:00:15;10.38;;;7.50;;
40993;SDS011;26722;43.212;27.932;2023-02-28T02:02:45;11.13;;;7.82;;
40993;SDS011;26722;43.212;27.932;2023-02-28T02:05:20;10.35;;;7.53;;
40993;SDS011;26722;43.212;27.932;2023-02-28T02:07:48;10.77;;;7.88;;
40993;SDS011;26722;43.212;27.932;2023-02-28T02:10:21;11.07;;;7.72;;
40993;SDS011;26722;43.212;27.932;2023-02-28T02:40:46;7.30;;;5.05;;
40993;SDS011;26722;43.212;27.932;2023-02-28T02:43:29;6.00;;;4.63;;
40993;SDS011;26722;43.212;27.932;2023-02-28T02:46:11;5.75;;;4.68;;
40993;SDS011;26722;43.212;27.932;2023-02-28T02:48:40;6.07;;;4.88;;
40993;SDS011;26722;43.212;27.932;2023-02-28T02:51:18;7.28;;;4.32;;
40993;SDS011;26722;43.212;27.932;2023-02-28T02:53:48;5.65;;;4.22;;
40993;SDS011;26722;43.212;27.932;2023-02-28T02:56:18;5.57;;;4.20;;
40993;SDS011;26722;43.212;27.932;2023-02-28T02:58:47;5.68;;;4.15;;
40993;SDS011;26722;43.212;27.932;2023-02-28T03:01:20;5.20;;;4.00;;
40993;SDS011;26722;43.212;27.932;2023-02-28T03:03:56;5.13;;;3.70;;
40993;SDS011;26722;43.212;27.932;2023-02-28T03:06:24;6.95;;;3.92;;
40993;SDS011;26722;43.212;27.932;2023-02-28T03:08:51;5.07;;;3.50;;
40993;SDS011;26722;43.212;27.932;2023-02-28T03:11:16;4.90;;;4.10;;
40993;SDS011;26722;43.212;27.932;2023-02-28T03:17:15;4.65;;;3.70;;
40993;SDS011;26722;43.212;27.932;2023-02-28T03:25:20;6.95;;;4.43;;
40993;SDS011;26722;43.212;27.932;2023-02-28T03:31:53;5.60;;;4.20;;
40993;SDS011;26722;43.212;27.932;2023-02-28T03:34:05;7.13;;;5.10;;
40993;SDS011;26722;43.212;27.932;2023-02-28T03:36:37;9.85;;;4.43;;
40993;SDS011;26722;43.212;27.932;2023-02-28T03:39:09;10.05;;;5.18;;
40993;SDS011;26722;43.212;27.932;2023-02-28T03:41:51;7.78;;;5.78;;
40993;SDS011;26722;43.212;27.932;2023-02-28T03:44:24;7.07;;;5.93;;
40993;SDS011;26722;43.212;27.932;2023-02-28T03:46:57;8.45;;;6.10;;
40993;SDS011;26722;43.212;27.932;2023-02-28T03:49:31;7.70;;;5.97;;
40993;SDS011;26722;43.212;27.932;2023-02-28T03:52:02;7.50;;;5.95;;
40993;SDS011;26722;43.212;27.932;2023-02-28T03:54:31;9.80;;;6.55;;
40993;SDS011;26722;43.212;27.932;2023-02-28T03:57:12;9.40;;;6.93;;
40993;SDS011;26722;43.212;27.932;2023-02-28T03:59:47;10.27;;;6.60;;
40993;SDS011;26722;43.212;27.932;2023-02-28T04:02:21;12.75;;;6.45;;
40993;SDS011;26722;43.212;27.932;2023-02-28T04:04:46;9.98;;;6.63;;
40993;SDS011;26722;43.212;27.932;2023-02-28T04:07:13;8.50;;;6.72;;
40993;SDS011;26722;43.212;27.932;2023-02-28T04:09:39;10.90;;;7.05;;
40993;SDS011;26722;43.212;27.932;2023-02-28T04:12:05;9.43;;;6.78;;
40993;SDS011;26722;43.212;27.932;2023-02-28T04:14:30;9.82;;;7.05;;
40993;SDS011;26722;43.212;27.932;2023-02-28T04:16:56;11.05;;;7.47;;
40993;SDS011;26722;43.212;27.932;2023-02-28T04:19:21;11.45;;;7.32;;
40993;SDS011;26722;43.212;27.932;2023-02-28T04:21:48;10.13;;;7.07;;
40993;SDS011;26722;43.212;27.932;2023-02-28T04:24:19;10.23;;;6.85;;
40993;SDS011;26722;43.212;27.932;2023-02-28T04:26:48;10.00;;;6.82;;
40993;SDS011;26722;43.212;27.932;2023-02-28T04:29:21;10.55;;;7.30;;
40993;SDS011;26722;43.212;27.932;2023-02-28T04:31:48;9.00;;;6.72;;
40993;SDS011;26722;43.212;27.932;2023-02-28T04:34:14;12.07;;;7.30;;
40993;SDS011;26722;43.212;27.932;2023-02-28T04:36:40;16.15;;;8.98;;
40993;SDS011;26722;43.212;27.932;2023-02-28T04:39:06;10.15;;;7.30;;
40993;SDS011;26722;43.212;27.932;2023-02-28T04:41:31;11.98;;;7.80;;
40993;SDS011;26722;43.212;27.932;2023-02-28T04:43:57;12.27;;;7.55;;
40993;SDS011;26722;43.212;27.932;2023-02-28T04:46:22;13.38;;;7.80;;
40993;SDS011;26722;43.212;27.932;2023-02-28T04:48:48;12.02;;;7.80;;
40993;SDS011;26722;43.212;27.932;2023-02-28T04:51:15;12.45;;;7.88;;
40993;SDS011;26722;43.212;27.932;2023-02-28T04:53:41;14.75;;;8.48;;
40993;SDS011;26722;43.212;27.932;2023-02-28T04:56:09;14.05;;;8.93;;
40993;SDS011;26722;43.212;27.932;2023-02-28T04:58:36;15.88;;;9.77;;
40993;SDS011;26722;43.212;27.932;2023-02-28T05:01:06;15.10;;;9.40;;
40993;SDS011;26722;43.212;27.932;2023-02-28T05:03:53;16.17;;;9.63;;
40993;SDS011;26722;43.212;27.932;2023-02-28T05:06:20;15.65;;;9.57;;
40993;SDS011;26722;43.212;27.932;2023-02-28T05:08:48;18.02;;;9.95;;
40993;SDS011;26722;43.212;27.932;2023-02-28T05:11:18;19.05;;;10.35;;
40993;SDS011;26722;43.212;27.932;2023-02-28T05:13:46;20.90;;;9.70;;
40993;SDS011;26722;43.212;27.932;2023-02-28T05:16:12;19.10;;;11.73;;
40993;SDS011;26722;43.212;27.932;2023-02-28T05:18:38;19.95;;;11.32;;
40993;SDS011;26722;43.212;27.932;2023-02-28T05:21:04;22.90;;;12.18;;
40993;SDS011;26722;43.212;27.932;2023-02-28T05:23:30;22.38;;;13.25;;
40993;SDS011;26722;43.212;27.932;2023-02-28T05:25:55;23.85;;;13.57;;
40993;SDS011;26722;43.212;27.932;2023-02-28T05:28:21;22.70;;;12.27;;
40993;SDS011;26722;43.212;27.932;2023-02-28T05:30:47;28.67;;;14.73;;
40993;SDS011;26722;43.212;27.932;2023-02-28T05:33:12;27.92;;;15.40;;
40993;SDS011;26722;43.212;27.932;2023-02-28T05:35:39;29.83;;;15.48;;
40993;SDS011;26722;43.212;27.932;2023-02-28T05:38:05;23.58;;;14.25;;
40993;SDS011;26722;43.212;27.932;2023-02-28T05:40:31;26.67;;;14.20;;
40993;SDS011;26722;43.212;27.932;2023-02-28T05:42:57;29.08;;;14.95;;
40993;SDS011;26722;43.212;27.932;2023-02-28T05:45:22;26.83;;;14.60;;
40993;SDS011;26722;43.212;27.932;2023-02-28T05:47:48;26.60;;;14.52;;
40993;SDS011;26722;43.212;27.932;2023-02-28T05:50:13;25.60;;;14.07;;
40993;SDS011;26722;43.212;27.932;2023-02-28T05:52:39;25.98;;;14.02;;
40993;SDS011;26722;43.212;27.932;2023-02-28T05:55:05;27.83;;;14.65;;
40993;SDS011;26722;43.212;27.932;2023-02-28T05:57:31;26.15;;;14.05;;
40993;SDS011;26722;43.212;27.932;2023-02-28T05:59:57;28.35;;;15.98;;
40993;SDS011;26722;43.212;27.932;2023-02-28T06:02:22;28.60;;;15.77;;
40993;SDS011;26722;43.212;27.932;2023-02-28T06:04:47;28.10;;;15.93;;
40993;SDS011;26722;43.212;27.932;2023-02-28T06:07:13;32.25;;;15.65;;
40993;SDS011;26722;43.212;27.932;2023-02-28T06:09:39;35.53;;;17.33;;
40993;SDS011;26722;43.212;27.932;2023-02-28T06:12:05;31.70;;;16.88;;
40993;SDS011;26722;43.212;27.932;2023-02-28T06:14:32;32.42;;;17.50;;
40993;SDS011;26722;43.212;27.932;2023-02-28T06:16:59;29.92;;;15.98;;
40993;SDS011;26722;43.212;27.932;2023-02-28T06:19:25;30.48;;;15.65;;
40993;SDS011;26722;43.212;27.932;2023-02-28T06:21:51;36.88;;;18.48;;
40993;SDS011;26722;43.212;27.932;2023-02-28T06:24:20;32.10;;;17.30;;
40993;SDS011;26722;43.212;27.932;2023-02-28T06:26:47;28.90;;;16.35;;
40993;SDS011;26722;43.212;27.932;2023-02-28T06:29:13;33.60;;;17.00;;
40993;SDS011;26722;43.212;27.932;2023-02-28T06:31:42;31.60;;;17.17;;
40993;SDS011;26722;43.212;27.932;2023-02-28T06:34:08;30.35;;;16.05;;
40993;SDS011;26722;43.212;27.932;2023-02-28T06:36:36;18.02;;;10.77;;
40993;SDS011;26722;43.212;27.932;2023-02-28T06:39:02;22.85;;;12.65;;
40993;SDS011;26722;43.212;27.932;2023-02-28T06:41:28;22.33;;;11.48;;
40993;SDS011;26722;43.212;27.932;2023-02-28T06:43:53;23.00;;;12.55;;
40993;SDS011;26722;43.212;27.932;2023-02-28T06:46:19;24.02;;;12.40;;
40993;SDS011;26722;43.212;27.932;2023-02-28T06:48:44;22.05;;;12.15;;
40993;SDS011;26722;43.212;27.932;2023-02-28T06:51:12;25.40;;;12.13;;
40993;SDS011;26722;43.212;27.932;2023-02-28T06:53:42;26.38;;;13.90;;
40993;SDS011;26722;43.212;27.932;2023-02-28T06:56:12;24.15;;;13.68;;
40993;SDS011;26722;43.212;27.932;2023-02-28T06:58:38;24.23;;;13.68;;
40993;SDS011;26722;43.212;27.932;2023-02-28T07:01:05;26.40;;;14.85;;
40993;SDS011;26722;43.212;27.932;2023-02-28T07:03:31;21.60;;;11.75;;
40993;SDS011;26722;43.212;27.932;2023-02-28T07:05:57;26.20;;;13.43;;
40993;SDS011;26722;43.212;27.932;2023-02-28T07:08:23;23.20;;;13.15;;
40993;SDS011;26722;43.212;27.932;2023-02-28T07:10:55;25.23;;;13.88;;
40993;SDS011;26722;43.212;27.932;2023-02-28T07:13:21;22.33;;;12.93;;
40993;SDS011;26722;43.212;27.932;2023-02-28T07:16:00;25.98;;;13.98;;
40993;SDS011;26722;43.212;27.932;2023-02-28T07:18:29;23.95;;;13.32;;
40993;SDS011;26722;43.212;27.932;2023-02-28T07:20:55;23.42;;;13.20;;
40993;SDS011;26722;43.212;27.932;2023-02-28T07:23:20;21.17;;;11.73;;
40993;SDS011;26722;43.212;27.932;2023-02-28T07:25:46;16.50;;;11.13;;
40993;SDS011;26722;43.212;27.932;2023-02-28T07:28:12;17.02;;;10.02;;
40993;SDS011;26722;43.212;27.932;2023-02-28T07:30:39;18.00;;;11.32;;
40993;SDS011;26722;43.212;27.932;2023-02-28T07:33:05;18.35;;;10.60;;
40993;SDS011;26722;43.212;27.932;2023-02-28T07:35:30;17.85;;;9.80;;
40993;SDS011;26722;43.212;27.932;2023-02-28T07:37:59;14.40;;;9.55;;
40993;SDS011;26722;43.212;27.932;2023-02-28T07:40:24;17.25;;;9.68;;
40993;SDS011;26722;43.212;27.932;2023-02-28T07:42:50;14.02;;;9.00;;
40993;SDS011;26722;43.212;27.932;2023-02-28T07:45:16;13.70;;;8.02;;
40993;SDS011;26722;43.212;27.932;2023-02-28T07:47:42;13.25;;;7.75;;
40993;SDS011;26722;43.212;27.932;2023-02-28T07:50:09;14.77;;;7.90;;
40993;SDS011;26722;43.212;27.932;2023-02-28T07:52:37;18.35;;;7.72;;
40993;SDS011;26722;43.212;27.932;2023-02-28T07:55:03;18.67;;;8.70;;
40993;SDS011;26722;43.212;27.932;2023-02-28T07:57:34;19.60;;;10.43;;
40993;SDS011;26722;43.212;27.932;2023-02-28T07:59:59;13.40;;;7.88;;
40993;SDS011;26722;43.212;27.932;2023-02-28T08:02:25;15.88;;;9.48;;
40993;SDS011;26722;43.212;27.932;2023-02-28T08:04:50;17.10;;;9.30;;
40993;SDS011;26722;43.212;27.932;2023-02-28T08:07:16;17.75;;;8.90;;
40993;SDS011;26722;43.212;27.932;2023-02-28T08:09:42;12.85;;;8.32;;
40993;SDS011;26722;43.212;27.932;2023-02-28T08:12:09;23.05;;;8.88;;
40993;SDS011;26722;43.212;27.932;2023-02-28T08:14:35;14.60;;;7.63;;
40993;SDS011;26722;43.212;27.932;2023-02-28T08:17:01;13.70;;;7.43;;
40993;SDS011;26722;43.212;27.932;2023-02-28T08:19:27;14.45;;;7.63;;
40993;SDS011;26722;43.212;27.932;2023-02-28T08:21:53;15.50;;;8.07;;
40993;SDS011;26722;43.212;27.932;2023-02-28T08:24:18;12.75;;;6.35;;
40993;SDS011;26722;43.212;27.932;2023-02-28T08:26:44;12.40;;;7.47;;
40993;SDS011;26722;43.212;27.932;2023-02-28T08:29:09;16.02;;;8.10;;
40993;SDS011;26722;43.212;27.932;2023-02-28T08:31:35;13.95;;;8.30;;
40993;SDS011;26722;43.212;27.932;2023-02-28T08:34:10;16.20;;;7.65;;
40993;SDS011;26722;43.212;27.932;2023-02-28T08:36:37;15.45;;;9.45;;
40993;SDS011;26722;43.212;27.932;2023-02-28T08:39:03;17.13;;;9.60;;
40993;SDS011;26722;43.212;27.932;2023-02-28T08:41:30;14.13;;;9.10;;
40993;SDS011;26722;43.212;27.932;2023-02-28T08:43:55;16.65;;;10.27;;
40993;SDS011;26722;43.212;27.932;2023-02-28T08:46:21;19.13;;;10.43;;
40993;SDS011;26722;43.212;27.932;2023-02-28T08:48:47;16.83;;;9.57;;
40993;SDS011;26722;43.212;27.932;2023-02-28T08:51:17;13.82;;;8.65;;
40993;SDS011;26722;43.212;27.932;2023-02-28T08:53:46;13.50;;;8.23;;
40993;SDS011;26722;43.212;27.932;2023-02-28T08:56:14;14.93;;;8.07;;
40993;SDS011;26722;43.212;27.932;2023-02-28T08:58:41;12.05;;;8.15;;
40993;SDS011;26722;43.212;27.932;2023-02-28T09:01:12;18.55;;;8.50;;
40993;SDS011;26722;43.212;27.932;2023-02-28T09:03:40;16.83;;;7.95;;
40993;SDS011;26722;43.212;27.932;2023-02-28T09:06:11;12.75;;;7.95;;
40993;SDS011;26722;43.212;27.932;2023-02-28T09:08:38;11.93;;;7.57;;
40993;SDS011;26722;43.212;27.932;2023-02-28T09:11:04;12.43;;;7.50;;
40993;SDS011;26722;43.212;27.932;2023-02-28T09:13:30;13.02;;;7.20;;
40993;SDS011;26722;43.212;27.932;2023-02-28T09:16:00;11.85;;;7.18;;
40993;SDS011;26722;43.212;27.932;2023-02-28T09:18:27;10.30;;;6.22;;
40993;SDS011;26722;43.212;27.932;2023-02-28T09:20:53;12.98;;;7.00;;
40993;SDS011;26722;43.212;27.932;2023-02-28T09:23:20;10.85;;;6.63;;
40993;SDS011;26722;43.212;27.932;2023-02-28T09:25:54;15.90;;;7.00;;
40993;SDS011;26722;43.212;27.932;2023-02-28T09:28:20;13.13;;;8.30;;
40993;SDS011;26722;43.212;27.932;2023-02-28T09:30:50;13.73;;;8.40;;
40993;SDS011;26722;43.212;27.932;2023-02-28T09:33:17;10.75;;;6.75;;
40993;SDS011;26722;43.212;27.932;2023-02-28T09:35:46;11.60;;;7.68;;
40993;SDS011;26722;43.212;27.932;2023-02-28T09:38:14;14.70;;;8.25;;
40993;SDS011;26722;43.212;27.932;2023-02-28T09:40:47;13.25;;;7.85;;
40993;SDS011;26722;43.212;27.932;2023-02-28T09:43:16;11.88;;;7.43;;
40993;SDS011;26722;43.212;27.932;2023-02-28T09:45:47;12.82;;;6.88;;
40993;SDS011;26722;43.212;27.932;2023-02-28T09:48:19;11.73;;;7.47;;
40993;SDS011;26722;43.212;27.932;2023-02-28T09:50:50;14.85;;;8.40;;
40993;SDS011;26722;43.212;27.932;2023-02-28T09:56:04;14.35;;;8.32;;
40993;SDS011;26722;43.212;27.932;2023-02-28T09:58:37;12.70;;;7.05;;
40993;SDS011;26722;43.212;27.932;2023-02-28T10:03:40;14.95;;;7.72;;
40993;SDS011;26722;43.212;27.932;2023-02-28T10:09:03;16.35;;;8.05;;
40993;SDS011;26722;43.212;27.932;2023-02-28T10:11:34;14.20;;;8.52;;
40993;SDS011;26722;43.212;27.932;2023-02-28T10:14:04;14.30;;;8.25;;
40993;SDS011;26722;43.212;27.932;2023-02-28T10:19:32;13.68;;;7.85;;
40993;SDS011;26722;43.212;27.932;2023-02-28T10:22:20;14.18;;;7.00;;
40993;SDS011;26722;43.212;27.932;2023-02-28T10:25:04;15.98;;;7.35;;
40993;SDS011;26722;43.212;27.932;2023-02-28T10:27:41;18.33;;;7.88;;
40993;SDS011;26722;43.212;27.932;2023-02-28T10:30:09;18.95;;;7.00;;
40993;SDS011;26722;43.212;27.932;2023-02-28T10:32:36;12.32;;;7.00;;
40993;SDS011;26722;43.212;27.932;2023-02-28T10:35:09;14.88;;;7.30;;
40993;SDS011;26722;43.212;27.932;2023-02-28T10:37:42;13.02;;;8.35;;
40993;SDS011;26722;43.212;27.932;2023-02-28T10:43:21;15.23;;;7.30;;
40993;SDS011;26722;43.212;27.932;2023-02-28T10:45:39;10.77;;;6.95;;
40993;SDS011;26722;43.212;27.932;2023-02-28T10:55:56;13.00;;;7.88;;
40993;SDS011;26722;43.212;27.932;2023-02-28T10:58:25;14.75;;;7.25;;
40993;SDS011;26722;43.212;27.932;2023-02-28T11:00:53;16.63;;;7.25;;
40993;SDS011;26722;43.212;27.932;2023-02-28T11:03:23;14.48;;;7.35;;
40993;SDS011;26722;43.212;27.932;2023-02-28T11:06:04;13.48;;;7.47;;
40993;SDS011;26722;43.212;27.932;2023-02-28T11:08:32;15.38;;;8.35;;
40993;SDS011;26722;43.212;27.932;2023-02-28T11:11:00;13.70;;;8.52;;
40993;SDS011;26722;43.212;27.932;2023-02-28T11:13:35;15.13;;;8.38;;
40993;SDS011;26722;43.212;27.932;2023-02-28T11:16:07;15.32;;;8.82;;
40993;SDS011;26722;43.212;27.932;2023-02-28T11:21:06;16.92;;;8.50;;
40993;SDS011;26722;43.212;27.932;2023-02-28T11:23:35;11.60;;;7.80;;
40993;SDS011;26722;43.212;27.932;2023-02-28T11:26:05;15.25;;;8.95;;
40993;SDS011;26722;43.212;27.932;2023-02-28T11:28:39;18.13;;;8.30;;
40993;SDS011;26722;43.212;27.932;2023-02-28T11:33:44;14.77;;;8.60;;
40993;SDS011;26722;43.212;27.932;2023-02-28T11:36:22;15.82;;;8.90;;
40993;SDS011;26722;43.212;27.932;2023-02-28T11:38:49;15.27;;;9.43;;
40993;SDS011;26722;43.212;27.932;2023-02-28T11:47:08;15.45;;;8.57;;
40993;SDS011;26722;43.212;27.932;2023-02-28T11:49:56;16.67;;;8.90;;
40993;SDS011;26722;43.212;27.932;2023-02-28T11:52:41;23.20;;;9.18;;
40993;SDS011;26722;43.212;27.932;2023-02-28T11:55:20;15.85;;;8.40;;
40993;SDS011;26722;43.212;27.932;2023-02-28T12:03:26;17.70;;;8.25;;
40993;SDS011;26722;43.212;27.932;2023-02-28T12:08:42;14.82;;;8.70;;
40993;SDS011;26722;43.212;27.932;2023-02-28T12:19:17;16.30;;;8.70;;
40993;SDS011;26722;43.212;27.932;2023-02-28T12:27:32;14.68;;;7.97;;
40993;SDS011;26722;43.212;27.932;2023-02-28T12:30:02;14.48;;;8.82;;
40993;SDS011;26722;43.212;27.932;2023-02-28T12:32:41;15.82;;;9.30;;
40993;SDS011;26722;43.212;27.932;2023-02-28T12:35:12;16.98;;;10.20;;
40993;SDS011;26722;43.212;27.932;2023-02-28T12:40:23;17.73;;;9.77;;
40993;SDS011;26722;43.212;27.932;2023-02-28T12:42:59;17.40;;;9.73;;
40993;SDS011;26722;43.212;27.932;2023-02-28T12:51:05;17.17;;;9.75;;
40993;SDS011;26722;43.212;27.932;2023-02-28T13:09:31;22.33;;;11.23;;
40993;SDS011;26722;43.212;27.932;2023-02-28T13:11:57;19.63;;;10.85;;
40993;SDS011;26722;43.212;27.932;2023-02-28T13:14:35;19.90;;;10.82;;
40993;SDS011;26722;43.212;27.932;2023-02-28T13:22:21;20.13;;;9.25;;
40993;SDS011;26722;43.212;27.932;2023-02-28T13:25:02;20.60;;;11.02;;
40993;SDS011;26722;43.212;27.932;2023-02-28T13:38:57;20.92;;;10.90;;
40993;SDS011;26722;43.212;27.932;2023-02-28T13:46:28;22.77;;;12.70;;
40993;SDS011;26722;43.212;27.932;2023-02-28T13:48:54;24.20;;;12.45;;
40993;SDS011;26722;43.212;27.932;2023-02-28T13:51:40;22.98;;;12.15;;
40993;SDS011;26722;43.212;27.932;2023-02-28T13:54:21;21.33;;;11.88;;
40993;SDS011;26722;43.212;27.932;2023-02-28T13:56:56;25.52;;;11.70;;
40993;SDS011;26722;43.212;27.932;2023-02-28T14:02:03;18.77;;;10.40;;
40993;SDS011;26722;43.212;27.932;2023-02-28T14:04:59;22.25;;;11.32;;
40993;SDS011;26722;43.212;27.932;2023-02-28T14:07:26;26.65;;;13.70;;
40993;SDS011;26722;43.212;27.932;2023-02-28T14:09:58;26.80;;;13.75;;
40993;SDS011;26722;43.212;27.932;2023-02-28T14:15:43;28.45;;;12.48;;
40993;SDS011;26722;43.212;27.932;2023-02-28T14:20:57;26.00;;;12.93;;
40993;SDS011;26722;43.212;27.932;2023-02-28T14:36:58;30.45;;;12.65;;
40993;SDS011;26722;43.212;27.932;2023-02-28T14:39:27;24.80;;;12.73;;
40993;SDS011;26722;43.212;27.932;2023-02-28T14:41:58;24.58;;;12.32;;
40993;SDS011;26722;43.212;27.932;2023-02-28T14:44:29;24.17;;;13.07;;
40993;SDS011;26722;43.212;27.932;2023-02-28T14:46:59;27.92;;;13.40;;
40993;SDS011;26722;43.212;27.932;2023-02-28T14:49:32;28.85;;;12.35;;
40993;SDS011;26722;43.212;27.932;2023-02-28T14:52:46;22.60;;;9.90;;
40993;SDS011;26722;43.212;27.932;2023-02-28T14:54:53;22.98;;;11.15;;
40993;SDS011;26722;43.212;27.932;2023-02-28T14:57:27;26.15;;;11.85;;
40993;SDS011;26722;43.212;27.932;2023-02-28T15:02:29;22.48;;;11.80;;
40993;SDS011;26722;43.212;27.932;2023-02-28T15:05:00;25.30;;;12.73;;
40993;SDS011;26722;43.212;27.932;2023-02-28T15:07:27;20.90;;;11.50;;
40993;SDS011;26722;43.212;27.932;2023-02-28T15:10:15;21.40;;;10.57;;
40993;SDS011;26722;43.212;27.932;2023-02-28T15:15:17;27.67;;;11.18;;
40993;SDS011;26722;43.212;27.932;2023-02-28T15:17:48;22.08;;;11.88;;
40993;SDS011;26722;43.212;27.932;2023-02-28T15:20:17;29.17;;;12.20;;
40993;SDS011;26722;43.212;27.932;2023-02-28T15:22:43;23.30;;;11.23;;
40993;SDS011;26722;43.212;27.932;2023-02-28T15:25:13;30.77;;;13.48;;
40993;SDS011;26722;43.212;27.932;2023-02-28T15:27:45;26.40;;;12.43;;
40993;SDS011;26722;43.212;27.932;2023-02-28T15:30:16;22.70;;;10.38;;
40993;SDS011;26722;43.212;27.932;2023-02-28T15:33:05;22.17;;;10.35;;
40993;SDS011;26722;43.212;27.932;2023-02-28T15:35:33;22.38;;;10.48;;
40993;SDS011;26722;43.212;27.932;2023-02-28T15:38:00;26.80;;;12.35;;
40993;SDS011;26722;43.212;27.932;2023-02-28T15:45:34;26.73;;;13.70;;
40993;SDS011;26722;43.212;27.932;2023-02-28T15:48:09;27.70;;;13.30;;
40993;SDS011;26722;43.212;27.932;2023-02-28T15:53:11;28.40;;;12.77;;
40993;SDS011;26722;43.212;27.932;2023-02-28T15:55:38;31.85;;;13.43;;
40993;SDS011;26722;43.212;27.932;2023-02-28T15:58:04;34.15;;;12.73;;
40993;SDS011;26722;43.212;27.932;2023-02-28T16:00:31;25.83;;;11.52;;
40993;SDS011;26722;43.212;27.932;2023-02-28T16:02:59;29.33;;;13.38;;
40993;SDS011;26722;43.212;27.932;2023-02-28T16:05:26;28.05;;;13.45;;
40993;SDS011;26722;43.212;27.932;2023-02-28T16:10:54;30.60;;;12.70;;
40993;SDS011;26722;43.212;27.932;2023-02-28T16:13:20;27.02;;;12.77;;
40993;SDS011;26722;43.212;27.932;2023-02-28T16:15:45;31.92;;;12.98;;
40993;SDS011;26722;43.212;27.932;2023-02-28T16:18:11;26.45;;;12.68;;
40993;SDS011;26722;43.212;27.932;2023-02-28T16:20:37;28.90;;;13.48;;
40993;SDS011;26722;43.212;27.932;2023-02-28T16:23:03;28.48;;;13.40;;
40993;SDS011;26722;43.212;27.932;2023-02-28T16:25:33;28.40;;;11.73;;
40993;SDS011;26722;43.212;27.932;2023-02-28T16:28:00;25.55;;;12.15;;
40993;SDS011;26722;43.212;27.932;2023-02-28T16:30:27;26.92;;;11.73;;
40993;SDS011;26722;43.212;27.932;2023-02-28T16:32:56;23.45;;;10.95;;
40993;SDS011;26722;43.212;27.932;2023-02-28T16:35:22;26.45;;;11.93;;
40993;SDS011;26722;43.212;27.932;2023-02-28T16:37:48;27.67;;;11.77;;
40993;SDS011;26722;43.212;27.932;2023-02-28T16:40:19;25.58;;;9.48;;
40993;SDS011;26722;43.212;27.932;2023-02-28T16:42:48;24.65;;;11.68;;
40993;SDS011;26722;43.212;27.932;2023-02-28T16:45:17;23.38;;;10.88;;
40993;SDS011;26722;43.212;27.932;2023-02-28T16:47:46;21.83;;;11.45;;
40993;SDS011;26722;43.212;27.932;2023-02-28T16:50:16;22.80;;;10.65;;
40993;SDS011;26722;43.212;27.932;2023-02-28T16:52:43;21.15;;;10.77;;
40993;SDS011;26722;43.212;27.932;2023-02-28T16:55:09;26.40;;;11.68;;
40993;SDS011;26722;43.212;27.932;2023-02-28T16:57:34;27.05;;;11.98;;
40993;SDS011;26722;43.212;27.932;2023-02-28T17:00:00;21.05;;;11.07;;
40993;SDS011;26722;43.212;27.932;2023-02-28T17:02:25;24.63;;;12.07;;
40993;SDS011;26722;43.212;27.932;2023-02-28T17:04:51;21.58;;;11.38;;
40993;SDS011;26722;43.212;27.932;2023-02-28T17:07:16;30.90;;;11.77;;
40993;SDS011;26722;43.212;27.932;2023-02-28T17:09:42;23.05;;;10.45;;
40993;SDS011;26722;43.212;27.932;2023-02-28T17:12:09;26.52;;;11.70;;
40993;SDS011;26722;43.212;27.932;2023-02-28T17:14:36;23.00;;;11.35;;
40993;SDS011;26722;43.212;27.932;2023-02-28T17:17:02;23.70;;;11.68;;
40993;SDS011;26722;43.212;27.932;2023-02-28T17:19:29;21.05;;;11.13;;
40993;SDS011;26722;43.212;27.932;2023-02-28T17:21:55;24.55;;;10.70;;
40993;SDS011;26722;43.212;27.932;2023-02-28T17:24:20;23.73;;;10.48;;
40993;SDS011;26722;43.212;27.932;2023-02-28T17:26:46;22.30;;;10.20;;